createdAt,value
2022-12-08T00:01:39.533Z,12.60
2022-12-08T00:04:07.145Z,12.97
2022-12-08T00:07:12.083Z,16.10
2022-12-08T00:09:42.090Z,13.93
2022-12-08T00:12:11.617Z,13.90
2022-12-08T00:14:40.547Z,13.07
2022-12-08T00:17:10.023Z,10.13
2022-12-08T00:19:37.459Z,11.43
2022-12-08T00:22:05.144Z,13.93
2022-12-08T00:24:34.833Z,10.23
2022-12-08T00:27:03.193Z,16.60
2022-12-08T00:29:30.194Z,10.50
2022-12-08T00:31:57.283Z,10.70
2022-12-08T00:34:24.240Z,11.60
2022-12-08T00:36:51.201Z,16.40
2022-12-08T00:39:18.382Z,9.93
2022-12-08T00:42:03.438Z,11.57
2022-12-08T00:44:31.671Z,12.17
2022-12-08T00:46:58.695Z,12.07
2022-12-08T00:49:25.535Z,11.20
2022-12-08T00:51:52.789Z,13.03
2022-12-08T00:54:20.029Z,15.30
2022-12-08T00:56:46.910Z,11.53
2022-12-08T00:59:14.861Z,10.63
2022-12-08T01:01:44.376Z,10.80
2022-12-08T01:04:15.828Z,12.53
2022-12-08T01:06:43.888Z,13.23
2022-12-08T01:09:13.219Z,26.70
2022-12-08T01:11:40.068Z,11.93
2022-12-08T01:14:06.898Z,23.27
2022-12-08T01:16:36.283Z,14.90
2022-12-08T01:19:04.875Z,11.30
2022-12-08T01:21:31.727Z,11.60
2022-12-08T01:24:00.551Z,11.00
2022-12-08T01:26:27.565Z,12.90
2022-12-08T01:28:54.702Z,11.17
2022-12-08T01:31:22.684Z,14.30
2022-12-08T01:33:50.165Z,10.60
2022-12-08T01:36:22.432Z,13.17
2022-12-08T01:38:49.379Z,12.87
2022-12-08T01:41:18.151Z,18.53
2022-12-08T01:43:56.780Z,12.90
2022-12-08T01:46:24.185Z,11.63
2022-12-08T01:48:54.559Z,14.27
2022-12-08T01:51:22.994Z,10.83
2022-12-08T01:53:50.211Z,14.43
2022-12-08T01:56:24.272Z,13.13
2022-12-08T01:58:53.492Z,13.20
2022-12-08T02:01:20.469Z,10.33
2022-12-08T02:03:52.056Z,10.87
2022-12-08T02:06:19.899Z,11.33
2022-12-08T02:08:49.840Z,10.87
2022-12-08T02:11:16.773Z,13.80
2022-12-08T02:13:46.211Z,12.60
2022-12-08T02:16:25.673Z,9.07
2022-12-08T02:19:29.832Z,6.50
2022-12-08T02:21:57.071Z,7.77
2022-12-08T02:24:33.279Z,7.67
2022-12-08T02:27:22.885Z,6.03
2022-12-08T02:30:04.878Z,7.73
2022-12-08T02:33:10.113Z,6.13
2022-12-08T02:35:43.177Z,8.80
2022-12-08T02:38:21.671Z,9.70
2022-12-08T02:40:58.432Z,9.40
2022-12-08T02:43:29.905Z,11.10
2022-12-08T02:46:02.138Z,10.97
2022-12-08T02:48:29.719Z,11.87
2022-12-08T02:50:57.911Z,13.03
2022-12-08T02:53:24.897Z,12.80
2022-12-08T02:56:01.682Z,16.13
2022-12-08T02:58:50.507Z,11.87
2022-12-08T03:01:44.625Z,19.03
2022-12-08T03:04:26.356Z,11.32
2022-12-08T03:06:59.288Z,14.37
2022-12-08T03:09:35.015Z,13.57
2022-12-08T03:12:13.307Z,13.57
2022-12-08T03:14:45.609Z,14.07
2022-12-08T03:17:14.980Z,11.70
2022-12-08T03:19:43.354Z,15.30
2022-12-08T03:22:13.530Z,18.83
2022-12-08T03:24:43.888Z,13.43
2022-12-08T03:27:14.863Z,21.13
2022-12-08T03:29:41.740Z,12.70
2022-12-08T03:32:14.070Z,12.70
2022-12-08T03:34:44.213Z,10.23
2022-12-08T03:37:12.696Z,13.10
2022-12-08T03:39:39.841Z,8.07
2022-12-08T03:42:06.622Z,11.43
2022-12-08T03:44:33.412Z,11.23
2022-12-08T03:47:00.270Z,9.00
2022-12-08T03:49:27.235Z,16.00
2022-12-08T03:51:54.140Z,22.67
2022-12-08T03:54:23.434Z,7.27
2022-12-08T03:56:50.281Z,11.67
2022-12-08T03:59:17.141Z,10.17
2022-12-08T04:01:44.038Z,17.63
2022-12-08T04:04:11.189Z,11.60
2022-12-08T04:06:37.999Z,18.03
2022-12-08T04:09:04.810Z,18.37
2022-12-08T04:11:33.004Z,14.17
2022-12-08T04:13:59.828Z,12.43
2022-12-08T04:16:27.999Z,20.10
2022-12-08T04:18:55.021Z,21.33
2022-12-08T04:21:22.339Z,13.73
2022-12-08T04:23:49.527Z,14.13
2022-12-08T04:26:16.721Z,18.63
2022-12-08T04:28:45.145Z,12.67
2022-12-08T04:31:12.187Z,17.50
2022-12-08T04:33:39.266Z,17.53
2022-12-08T04:36:07.381Z,19.07
2022-12-08T04:38:34.631Z,19.37
2022-12-08T04:41:01.906Z,20.37
2022-12-08T04:43:28.784Z,16.37
2022-12-08T04:45:57.037Z,20.37
2022-12-08T04:48:23.943Z,21.93
2022-12-08T04:50:51.622Z,12.80
2022-12-08T04:53:19.902Z,16.17
2022-12-08T04:55:48.783Z,19.13
2022-12-08T04:58:17.709Z,13.83
2022-12-08T05:00:45.597Z,16.30
2022-12-08T05:03:14.759Z,19.80
2022-12-08T05:05:42.216Z,20.90
2022-12-08T05:08:10.107Z,14.33
2022-12-08T05:10:37.402Z,16.13
2022-12-08T05:13:04.277Z,15.13
2022-12-08T05:15:31.129Z,11.70
2022-12-08T05:17:57.937Z,16.97
2022-12-08T05:20:26.162Z,15.47
2022-12-08T05:22:53.175Z,18.60
2022-12-08T05:25:20.188Z,15.27
2022-12-08T05:27:47.009Z,17.00
2022-12-08T05:30:14.198Z,15.33
2022-12-08T05:32:41.029Z,19.00
2022-12-08T05:35:08.797Z,12.57
2022-12-08T05:37:37.251Z,15.87
2022-12-08T05:40:04.723Z,18.30
2022-12-08T05:42:31.776Z,14.77
2022-12-08T05:44:58.645Z,19.13
2022-12-08T05:47:25.421Z,14.43
2022-12-08T05:49:52.287Z,18.03
2022-12-08T05:52:19.150Z,16.17
2022-12-08T05:55:22.364Z,17.20
2022-12-08T05:57:39.486Z,20.97
2022-12-08T06:00:07.896Z,16.70
2022-12-08T06:02:35.824Z,16.93
2022-12-08T06:05:02.927Z,12.77
2022-12-08T06:07:29.774Z,12.93
2022-12-08T06:09:57.917Z,16.20
2022-12-08T06:12:24.817Z,14.30
2022-12-08T06:17:33.340Z,11.17
2022-12-08T06:20:00.229Z,13.10
2022-12-08T06:22:27.020Z,11.17
2022-12-08T06:24:53.876Z,10.17
2022-12-08T06:27:22.056Z,9.63
2022-12-08T06:29:48.893Z,9.83
2022-12-08T06:32:15.813Z,5.70
2022-12-08T06:34:42.726Z,5.17
2022-12-08T06:37:09.641Z,3.40
2022-12-08T06:39:36.723Z,5.90
2022-12-08T06:42:22.379Z,4.53
2022-12-08T06:44:50.835Z,5.17
2022-12-08T06:47:20.038Z,7.03
2022-12-08T06:49:50.132Z,5.93
2022-12-08T06:52:16.961Z,5.63
2022-12-08T06:54:43.895Z,7.30
2022-12-08T06:57:10.991Z,6.77
2022-12-08T06:59:39.187Z,7.43
2022-12-08T07:02:07.383Z,9.77
2022-12-08T07:04:34.241Z,7.00
2022-12-08T07:07:01.162Z,9.70
2022-12-08T07:09:28.472Z,7.60
2022-12-08T07:11:55.305Z,8.00
2022-12-08T07:14:24.913Z,8.87
2022-12-08T07:16:52.321Z,11.47
2022-12-08T07:19:20.719Z,7.47
2022-12-08T07:21:47.621Z,12.17
2022-12-08T07:24:14.574Z,8.47
2022-12-08T07:26:41.713Z,8.27
2022-12-08T07:29:10.345Z,8.73
2022-12-08T07:31:37.574Z,8.47
2022-12-08T07:34:04.778Z,8.57
2022-12-08T07:36:33.043Z,8.77
2022-12-08T07:39:00.128Z,9.20
2022-12-08T07:41:27.178Z,17.63
2022-12-08T07:43:54.318Z,12.87
2022-12-08T07:46:23.031Z,18.77
2022-12-08T07:48:50.319Z,7.77
2022-12-08T07:51:17.549Z,9.90
2022-12-08T07:53:53.414Z,7.67
2022-12-08T07:56:22.036Z,9.37
2022-12-08T07:58:48.843Z,13.27
2022-12-08T08:01:20.648Z,9.67
2022-12-08T08:03:47.721Z,14.57
2022-12-08T08:06:14.777Z,13.57
2022-12-08T08:08:41.579Z,6.87
2022-12-08T08:11:18.944Z,12.27
2022-12-08T08:13:47.925Z,8.37
2022-12-08T08:16:14.982Z,10.33
2022-12-08T08:18:43.519Z,8.20
2022-12-08T08:21:43.165Z,16.23
2022-12-08T08:23:57.142Z,12.47
2022-12-08T08:26:25.320Z,8.47
2022-12-08T08:28:52.421Z,13.23
2022-12-08T08:31:24.789Z,14.83
2022-12-08T08:33:51.752Z,9.20
2022-12-08T08:36:18.722Z,11.60
2022-12-08T08:38:45.579Z,13.57
2022-12-08T08:41:12.395Z,9.83
2022-12-08T08:43:40.718Z,10.63
2022-12-08T08:46:09.041Z,12.20
2022-12-08T08:48:36.364Z,12.67
2022-12-08T08:51:07.996Z,11.50
2022-12-08T08:53:35.261Z,23.07
2022-12-08T08:56:02.983Z,14.97
2022-12-08T08:58:29.979Z,11.20
2022-12-08T09:00:58.249Z,13.00
2022-12-08T09:03:25.041Z,8.27
2022-12-08T09:05:51.956Z,10.80
2022-12-08T09:08:19.050Z,12.90
2022-12-08T09:10:46.004Z,13.10
2022-12-08T09:13:13.009Z,15.97
2022-12-08T09:15:39.970Z,10.60
2022-12-08T09:18:08.255Z,10.07
2022-12-08T09:20:35.665Z,13.13
2022-12-08T09:23:02.651Z,11.87
2022-12-08T09:25:29.546Z,10.13
2022-12-08T09:27:56.568Z,10.87
2022-12-08T09:30:23.514Z,10.20
2022-12-08T09:32:50.415Z,11.53
2022-12-08T09:35:18.620Z,14.23
2022-12-08T09:37:45.436Z,11.97
2022-12-08T09:40:17.799Z,11.03
2022-12-08T09:42:50.796Z,8.30
2022-12-08T09:45:19.151Z,16.10
2022-12-08T09:47:54.328Z,12.00
2022-12-08T09:50:31.356Z,9.13
2022-12-08T09:53:03.978Z,8.80
2022-12-08T09:55:42.478Z,9.53
2022-12-08T09:58:20.741Z,11.20
2022-12-08T10:00:47.836Z,10.00
2022-12-08T10:03:16.829Z,12.90
2022-12-08T10:05:52.063Z,10.03
2022-12-08T10:08:21.304Z,9.97
2022-12-08T10:10:56.947Z,11.93
2022-12-08T10:13:32.129Z,12.20
2022-12-08T10:16:15.106Z,11.90
2022-12-08T10:18:46.136Z,10.57
2022-12-08T10:21:18.831Z,11.53
2022-12-08T10:23:50.103Z,11.63
2022-12-08T10:26:18.875Z,14.20
2022-12-08T10:28:46.032Z,8.27
2022-12-08T10:31:17.938Z,11.73
2022-12-08T10:33:47.164Z,11.80
2022-12-08T10:36:15.443Z,9.10
2022-12-08T10:38:42.244Z,11.10
2022-12-08T10:41:14.204Z,10.67
2022-12-08T10:43:46.342Z,8.57
2022-12-08T10:46:16.157Z,9.70
2022-12-08T10:48:51.818Z,7.90
2022-12-08T10:51:37.691Z,8.87
2022-12-08T10:54:06.200Z,10.13
2022-12-08T10:56:36.161Z,6.50
2022-12-08T11:03:24.483Z,7.73
2022-12-08T11:05:55.683Z,6.60
2022-12-08T11:08:24.287Z,10.87
2022-12-08T11:10:51.327Z,6.20
2022-12-08T11:13:22.155Z,8.97
2022-12-08T11:15:50.634Z,8.67
2022-12-08T11:18:29.536Z,8.87
2022-12-08T11:21:00.368Z,14.30
2022-12-08T11:23:30.272Z,4.73
2022-12-08T11:26:05.274Z,7.53
2022-12-08T11:28:32.338Z,5.23
2022-12-08T11:31:05.208Z,14.10
2022-12-08T11:33:33.383Z,5.23
2022-12-08T11:36:04.887Z,9.60
2022-12-08T11:38:35.381Z,10.20
2022-12-08T11:41:09.467Z,5.47
2022-12-08T11:43:46.100Z,5.50
2022-12-08T11:46:17.858Z,8.90
2022-12-08T11:48:49.912Z,5.07
2022-12-08T11:51:21.700Z,9.20
2022-12-08T11:53:58.593Z,7.50
2022-12-08T11:56:31.320Z,5.77
2022-12-08T11:59:03.158Z,11.93
2022-12-08T12:01:30.204Z,5.47
2022-12-08T12:04:09.676Z,9.03
2022-12-08T12:07:01.606Z,6.87
2022-12-08T12:09:41.815Z,10.60
2022-12-08T12:12:18.191Z,8.77
2022-12-08T12:15:19.923Z,9.17
2022-12-08T12:17:51.475Z,9.07
2022-12-08T12:20:24.230Z,8.20
2022-12-08T12:22:56.395Z,9.53
2022-12-08T12:25:26.697Z,12.65
2022-12-08T12:27:59.397Z,7.93
2022-12-08T12:30:27.983Z,12.97
2022-12-08T12:32:58.848Z,6.33
2022-12-08T12:35:33.017Z,4.17
2022-12-08T12:38:03.973Z,8.30
2022-12-08T12:40:41.970Z,5.03
2022-12-08T12:43:23.938Z,3.63
2022-12-08T12:45:50.904Z,3.97
2022-12-08T12:48:24.684Z,4.83
2022-12-08T12:50:52.573Z,2.90
2022-12-08T12:53:49.181Z,5.67
2022-12-08T12:56:49.788Z,4.17
2022-12-08T12:59:41.135Z,4.97
2022-12-08T13:02:18.466Z,6.83
2022-12-08T13:04:55.537Z,3.13
2022-12-08T13:07:24.619Z,6.10
2022-12-08T13:09:57.918Z,2.70
2022-12-08T13:12:28.189Z,3.05
2022-12-08T13:15:03.367Z,4.97
2022-12-08T13:17:32.017Z,4.73
2022-12-08T13:20:00.472Z,4.20
2022-12-08T13:23:12.094Z,1.97
2022-12-08T13:25:54.797Z,3.03
2022-12-08T13:28:25.913Z,5.77
2022-12-08T13:30:54.105Z,10.33
2022-12-08T13:33:30.775Z,2.50
2022-12-08T13:36:05.635Z,3.67
2022-12-08T13:38:36.148Z,3.57
2022-12-08T13:41:08.125Z,2.73
2022-12-08T13:43:52.448Z,4.53
2022-12-08T13:53:49.338Z,5.20
2022-12-08T13:57:55.387Z,3.93
2022-12-08T14:00:24.238Z,4.93
2022-12-08T14:02:55.892Z,3.27
2022-12-08T14:05:47.524Z,2.70
2022-12-08T14:08:51.040Z,4.60
2022-12-08T14:11:33.476Z,3.40
2022-12-08T14:14:03.437Z,2.50
2022-12-08T14:16:39.162Z,7.53
2022-12-08T14:19:14.898Z,9.87
2022-12-08T14:21:43.835Z,12.93
2022-12-08T14:24:11.922Z,29.90
2022-12-08T14:26:38.786Z,23.43
2022-12-08T14:29:07.867Z,38.17
2022-12-08T14:31:36.180Z,30.17
2022-12-08T14:34:03.192Z,28.07
2022-12-08T14:36:32.048Z,8.07
2022-12-08T14:38:59.115Z,8.37
2022-12-08T14:41:28.119Z,4.23
2022-12-08T14:44:00.211Z,5.90
2022-12-08T14:46:28.206Z,8.00
2022-12-08T14:48:58.158Z,5.33
2022-12-08T14:51:30.558Z,18.27
2022-12-08T14:54:00.242Z,17.43
2022-12-08T14:56:32.979Z,14.37
2022-12-08T14:59:06.368Z,19.60
2022-12-08T15:01:34.768Z,33.47
2022-12-08T15:04:09.563Z,15.43
2022-12-08T15:06:36.903Z,11.30
2022-12-08T15:09:16.721Z,8.27
2022-12-08T15:11:43.757Z,7.23
2022-12-08T15:14:29.056Z,8.07
2022-12-08T15:16:55.938Z,11.17
2022-12-08T15:19:28.511Z,9.10
2022-12-08T15:21:57.634Z,7.63
2022-12-08T15:24:26.386Z,6.70
2022-12-08T15:26:53.863Z,11.67
2022-12-08T15:29:23.365Z,7.57
2022-12-08T15:31:52.431Z,9.23
2022-12-08T15:34:19.536Z,7.83
2022-12-08T15:36:49.179Z,10.87
2022-12-08T15:39:28.438Z,10.07
2022-12-08T15:41:55.447Z,10.20
2022-12-08T15:44:22.930Z,8.37
2022-12-08T15:46:50.196Z,9.60
2022-12-08T15:49:19.107Z,13.43
2022-12-08T15:51:47.804Z,17.07
2022-12-08T15:54:15.138Z,22.30
2022-12-08T15:57:02.959Z,25.53
2022-12-08T15:59:32.151Z,29.47
2022-12-08T16:01:59.426Z,40.00
2022-12-08T16:07:22.366Z,31.33
2022-12-08T16:09:49.563Z,67.37
2022-12-08T16:18:15.955Z,74.03
2022-12-08T16:21:07.577Z,61.57
2022-12-08T16:23:42.976Z,128.20
2022-12-08T16:26:28.625Z,92.80
2022-12-08T16:29:00.142Z,37.37
2022-12-08T16:31:27.061Z,44.40
2022-12-08T16:33:53.905Z,38.10
2022-12-08T16:36:20.729Z,32.97
2022-12-08T16:38:48.883Z,22.33
2022-12-08T16:41:35.659Z,36.77
2022-12-08T16:44:03.160Z,19.57
2022-12-08T16:46:30.199Z,31.63
2022-12-08T16:48:59.707Z,31.93
2022-12-08T16:51:27.524Z,29.13
2022-12-08T16:53:57.112Z,27.77
2022-12-08T16:56:30.611Z,31.27
2022-12-08T16:58:59.539Z,25.57
2022-12-08T17:01:26.500Z,19.73
2022-12-08T17:04:22.522Z,31.17
2022-12-08T17:06:40.474Z,22.10
2022-12-08T17:09:08.837Z,25.80
2022-12-08T17:11:42.387Z,21.47
2022-12-08T17:14:10.257Z,17.13
2022-12-08T17:16:37.293Z,19.47
2022-12-08T17:19:04.228Z,13.37
2022-12-08T17:21:31.078Z,14.23
2022-12-08T17:23:58.080Z,13.20
2022-12-08T17:26:26.275Z,12.77
2022-12-08T17:29:01.529Z,19.97
2022-12-08T17:31:30.619Z,26.37
2022-12-08T17:33:58.540Z,26.73
2022-12-08T17:36:25.427Z,27.47
2022-12-08T17:38:52.290Z,28.07
2022-12-08T17:41:19.085Z,20.87
2022-12-08T17:43:47.750Z,22.80
2022-12-08T17:46:17.728Z,20.57
2022-12-08T17:48:44.737Z,18.60
2022-12-08T17:51:11.579Z,24.97
2022-12-08T17:53:40.854Z,19.70
2022-12-08T17:56:15.195Z,33.23
2022-12-08T17:58:42.209Z,24.93
2022-12-08T18:01:11.371Z,20.17
2022-12-08T18:03:39.045Z,17.37
2022-12-08T18:06:07.238Z,14.97
2022-12-08T18:08:34.760Z,20.80
2022-12-08T18:11:01.829Z,17.53
2022-12-08T18:13:29.056Z,19.30
2022-12-08T18:15:55.948Z,18.67
2022-12-08T18:18:24.129Z,30.17
2022-12-08T18:20:50.962Z,24.90
2022-12-08T18:23:18.831Z,25.20
2022-12-08T18:25:45.848Z,27.63
2022-12-08T18:28:12.683Z,26.40
2022-12-08T18:30:40.410Z,23.40
2022-12-08T18:33:07.837Z,23.43
2022-12-08T18:35:39.027Z,22.67
2022-12-08T18:38:05.909Z,16.90
2022-12-08T18:40:32.747Z,25.37
2022-12-08T18:42:59.622Z,23.07
2022-12-08T18:45:26.461Z,32.40
2022-12-08T18:47:53.373Z,31.37
2022-12-08T18:50:20.458Z,16.27
2022-12-08T18:52:48.838Z,20.63
2022-12-08T18:55:15.999Z,20.23
2022-12-08T18:57:43.347Z,22.67
2022-12-08T19:00:12.441Z,34.90
2022-12-08T19:02:39.708Z,17.73
2022-12-08T19:05:07.973Z,19.80
2022-12-08T19:07:35.258Z,25.23
2022-12-08T19:10:04.208Z,18.50
2022-12-08T19:12:31.607Z,22.13
2022-12-08T19:14:58.555Z,21.83
2022-12-08T19:17:26.002Z,22.50
2022-12-08T19:19:52.867Z,24.17
2022-12-08T19:22:19.774Z,17.47
2022-12-08T19:24:46.571Z,17.67
2022-12-08T19:27:14.818Z,15.87
2022-12-08T19:29:41.669Z,59.63
2022-12-08T19:32:08.603Z,33.13
2022-12-08T19:34:35.446Z,31.37
2022-12-08T19:37:02.247Z,28.57
2022-12-08T19:39:47.476Z,21.33
2022-12-08T19:42:36.320Z,24.63
2022-12-08T19:45:06.380Z,27.03
2022-12-08T19:47:33.517Z,17.77
2022-12-08T19:50:18.756Z,24.67
2022-12-08T19:52:45.723Z,17.93
2022-12-08T19:55:13.544Z,18.70
2022-12-08T19:57:41.885Z,17.47
2022-12-08T20:00:10.606Z,19.77
2022-12-08T20:02:37.811Z,23.43
2022-12-08T20:05:05.548Z,16.60
2022-12-08T20:07:32.794Z,19.17
2022-12-08T20:09:59.646Z,14.20
2022-12-08T20:12:26.524Z,15.00
2022-12-08T20:14:54.717Z,14.23
2022-12-08T20:17:21.597Z,14.03
2022-12-08T20:19:48.745Z,14.57
2022-12-08T20:22:15.563Z,13.97
2022-12-08T20:24:42.554Z,21.53
2022-12-08T20:27:09.515Z,20.00
2022-12-08T20:29:36.368Z,18.97
2022-12-08T20:32:04.845Z,16.53
2022-12-08T20:34:32.167Z,16.13
2022-12-08T20:36:59.065Z,19.93
2022-12-08T20:39:25.955Z,25.07
2022-12-08T20:41:54.578Z,21.23
2022-12-08T20:44:21.576Z,27.33
2022-12-08T20:46:49.785Z,35.23
2022-12-08T20:49:18.188Z,51.23
2022-12-08T20:51:45.281Z,26.67
2022-12-08T20:54:12.223Z,32.60
2022-12-08T20:56:44.759Z,19.83
2022-12-08T20:59:16.902Z,26.30
2022-12-08T21:01:43.902Z,17.60
2022-12-08T21:04:12.350Z,25.73
2022-12-08T21:06:40.925Z,22.10
2022-12-08T21:09:09.043Z,22.63
2022-12-08T21:11:36.233Z,28.30
2022-12-08T21:14:03.563Z,20.97
2022-12-08T21:16:30.676Z,23.33
2022-12-08T21:18:57.639Z,21.77
2022-12-08T21:21:24.486Z,26.27
2022-12-08T21:23:52.704Z,20.93
2022-12-08T21:26:21.750Z,22.97
2022-12-08T21:28:48.819Z,30.50
2022-12-08T21:31:17.910Z,25.53
2022-12-08T21:33:45.120Z,41.33
2022-12-08T21:36:14.126Z,39.57
2022-12-08T21:38:41.544Z,47.83
2022-12-08T21:41:12.926Z,41.53
2022-12-08T21:43:40.104Z,39.87
2022-12-08T21:46:07.012Z,31.50
2022-12-08T21:48:34.089Z,29.93
2022-12-08T21:51:04.834Z,35.00
2022-12-08T21:53:32.068Z,33.17
2022-12-08T21:55:59.153Z,33.57
2022-12-08T21:58:28.240Z,29.00
2022-12-08T22:00:55.193Z,36.37
2022-12-08T22:03:22.203Z,28.10
2022-12-08T22:05:49.348Z,30.23
2022-12-08T22:08:16.369Z,27.80
2022-12-08T22:10:47.329Z,22.30
2022-12-08T22:13:14.278Z,25.10
2022-12-08T22:15:42.605Z,24.07
2022-12-08T22:18:09.622Z,22.13
2022-12-08T22:20:42.344Z,26.80
2022-12-08T22:23:11.034Z,24.60
2022-12-08T22:25:37.999Z,34.90
2022-12-08T22:28:05.459Z,21.83
2022-12-08T22:30:38.714Z,22.80
2022-12-08T22:33:07.332Z,24.15
2022-12-08T22:35:34.233Z,33.30
2022-12-08T22:38:01.090Z,24.43
2022-12-08T22:40:27.860Z,23.03
2022-12-08T22:42:54.780Z,33.90
2022-12-08T22:45:21.892Z,17.67
2022-12-08T22:47:49.137Z,25.80
2022-12-08T22:50:17.368Z,17.17
2022-12-08T22:52:44.197Z,20.13
2022-12-08T22:55:10.967Z,21.53
2022-12-08T22:57:37.846Z,19.70
2022-12-08T23:00:06.176Z,15.20
2022-12-08T23:02:33.504Z,24.80
2022-12-08T23:05:00.559Z,18.90
2022-12-08T23:07:29.001Z,22.70
2022-12-08T23:09:56.091Z,27.97
2022-12-08T23:12:22.950Z,22.23
2022-12-08T23:14:49.971Z,24.50
2022-12-08T23:17:17.122Z,28.27
2022-12-08T23:19:44.039Z,23.13
2022-12-08T23:22:11.085Z,21.57
2022-12-08T23:24:39.965Z,18.60
2022-12-08T23:27:06.929Z,20.17
2022-12-08T23:29:33.913Z,22.57
2022-12-08T23:32:00.835Z,17.17
2022-12-08T23:34:27.723Z,18.43
2022-12-08T23:36:54.752Z,14.73
2022-12-08T23:39:24.289Z,21.33
2022-12-08T23:41:52.758Z,22.20
2022-12-08T23:44:19.725Z,19.00
2022-12-08T23:46:46.697Z,19.80
2022-12-08T23:49:13.816Z,18.43
2022-12-08T23:51:40.941Z,18.63
2022-12-08T23:54:08.353Z,18.30
2022-12-08T23:56:35.441Z,17.40
2022-12-08T23:59:04.193Z,21.30
